createdAt,value
2019-04-14T00:02:14.180Z,90.20
2019-04-14T00:04:40.147Z,90.28
2019-04-14T00:07:06.387Z,90.19
2019-04-14T00:09:33.703Z,90.17
2019-04-14T00:11:59.119Z,90.24
2019-04-14T00:14:25.367Z,90.28
2019-04-14T00:16:51.671Z,89.99
2019-04-14T00:19:17.985Z,90.15
2019-04-14T00:21:45.371Z,90.11
2019-04-14T00:24:11.575Z,90.33
2019-04-14T00:26:37.928Z,90.93
2019-04-14T00:29:04.466Z,90.89
2019-04-14T00:31:30.723Z,90.83
2019-04-14T00:33:56.353Z,90.81
2019-04-14T00:36:22.260Z,90.33
2019-04-14T00:38:49.652Z,90.63
2019-04-14T00:41:15.917Z,90.10
2019-04-14T00:43:41.726Z,89.87
2019-04-14T00:46:07.955Z,89.44
2019-04-14T00:48:34.205Z,90.14
2019-04-14T00:51:00.568Z,90.39
2019-04-14T00:53:27.474Z,90.10
2019-04-14T00:55:53.328Z,90.03
2019-04-14T00:58:19.272Z,90.35
2019-04-14T01:00:45.610Z,90.75
2019-04-14T01:03:11.933Z,90.25
2019-04-14T01:05:39.261Z,90.53
2019-04-14T01:08:05.268Z,90.54
2019-04-14T01:10:32.104Z,90.21
2019-04-14T01:12:58.180Z,90.25
2019-04-14T01:15:24.579Z,90.41
2019-04-14T01:17:50.648Z,90.54
2019-04-14T01:20:16.724Z,90.48
2019-04-14T01:22:42.566Z,90.11
2019-04-14T01:25:08.882Z,90.18
2019-04-14T01:27:36.254Z,90.56
2019-04-14T01:30:02.680Z,89.68
2019-04-14T01:32:28.345Z,89.82
2019-04-14T01:34:55.471Z,90.00
2019-04-14T01:37:20.480Z,89.75
2019-04-14T01:39:48.093Z,89.20
2019-04-14T01:42:13.800Z,88.96
2019-04-14T01:44:39.611Z,88.80
2019-04-14T01:47:05.737Z,89.18
2019-04-14T01:49:32.989Z,89.00
2019-04-14T01:51:59.225Z,88.68
2019-04-14T01:54:25.670Z,88.50
2019-04-14T01:56:51.407Z,88.46
2019-04-14T01:59:17.390Z,88.44
2019-04-14T02:01:44.095Z,88.71
2019-04-14T02:04:10.031Z,88.87
2019-04-14T02:06:37.426Z,88.26
2019-04-14T02:09:03.288Z,88.44
2019-04-14T02:11:29.254Z,89.24
2019-04-14T02:13:55.293Z,88.93
2019-04-14T02:16:32.267Z,88.36
2019-04-14T02:18:50.623Z,88.67
2019-04-14T02:21:14.952Z,89.03
2019-04-14T02:23:41.144Z,88.86
2019-04-14T02:26:07.021Z,89.24
2019-04-14T02:28:33.243Z,89.25
2019-04-14T02:31:13.444Z,89.19
2019-04-14T02:33:55.203Z,89.61
2019-04-14T02:36:28.016Z,89.16
2019-04-14T02:38:49.022Z,88.75
2019-04-14T02:43:45.380Z,89.01
2019-04-14T02:50:56.263Z,88.31
2019-04-14T02:53:30.820Z,88.53
2019-04-14T02:55:49.155Z,88.66
2019-04-14T02:58:21.844Z,89.70
2019-04-14T03:00:45.639Z,89.44
2019-04-14T03:03:10.880Z,89.38
2019-04-14T03:05:37.233Z,88.99
2019-04-14T03:08:04.293Z,89.31
2019-04-14T03:10:31.999Z,89.11
2019-04-14T03:13:01.153Z,88.98
2019-04-14T03:15:27.978Z,89.35
2019-04-14T03:17:47.365Z,89.24
2019-04-14T03:20:27.970Z,89.09
2019-04-14T03:22:51.770Z,88.95
2019-04-14T03:24:50.379Z,88.87
2019-04-14T03:27:45.720Z,89.08
2019-04-14T03:30:05.024Z,89.13
2019-04-14T03:35:03.651Z,88.90
2019-04-14T03:37:39.521Z,88.62
2019-04-14T03:42:13.251Z,88.58
2019-04-14T03:44:37.604Z,88.73
2019-04-14T03:49:32.240Z,88.22
2019-04-14T03:51:59.575Z,88.61
2019-04-14T03:54:15.889Z,87.96
2019-04-14T03:56:21.638Z,87.98
2019-04-14T03:58:48.603Z,87.83
2019-04-14T04:01:15.005Z,88.45
2019-04-14T04:03:41.350Z,89.13
2019-04-14T04:06:07.469Z,89.93
2019-04-14T04:08:33.377Z,89.98
2019-04-14T04:10:59.807Z,89.41
2019-04-14T04:13:25.937Z,89.53
2019-04-14T04:15:52.001Z,89.11
2019-04-14T04:18:18.072Z,89.34
2019-04-14T04:20:45.522Z,88.59
2019-04-14T04:23:11.742Z,88.54
2019-04-14T04:25:37.855Z,88.57
2019-04-14T04:28:03.755Z,88.42
2019-04-14T04:30:29.797Z,88.64
2019-04-14T04:32:56.010Z,88.25
2019-04-14T04:35:22.318Z,86.94
2019-04-14T04:37:49.740Z,86.00
2019-04-14T04:40:15.738Z,85.36
2019-04-14T04:42:41.638Z,82.55
2019-04-14T04:45:08.143Z,79.43
2019-04-14T04:47:33.960Z,76.47
2019-04-14T04:50:00.293Z,75.38
2019-04-14T04:52:26.598Z,73.48
2019-04-14T04:54:53.826Z,71.78
2019-04-14T04:57:19.921Z,69.88
2019-04-14T04:59:45.580Z,68.82
2019-04-14T05:02:11.913Z,65.97
2019-04-14T05:04:39.386Z,65.10
2019-04-14T05:07:05.615Z,65.31
2019-04-14T05:09:31.616Z,65.48
2019-04-14T05:11:57.788Z,65.06
2019-04-14T05:14:24.047Z,64.39
2019-04-14T05:16:50.751Z,63.12
2019-04-14T05:19:23.609Z,62.47
2019-04-14T05:21:43.066Z,63.59
2019-04-14T05:24:09.268Z,63.10
2019-04-14T05:26:35.215Z,62.74
2019-04-14T05:29:01.576Z,62.36
2019-04-14T05:31:29.115Z,63.60
2019-04-14T05:33:55.237Z,62.89
2019-04-14T05:36:21.442Z,62.33
2019-04-14T05:38:47.440Z,61.36
2019-04-14T05:41:13.692Z,62.78
2019-04-14T05:43:48.208Z,62.51
2019-04-14T05:46:05.826Z,63.16
2019-04-14T05:48:32.162Z,61.21
2019-04-14T05:50:59.771Z,60.08
2019-04-14T05:53:26.136Z,60.00
2019-04-14T05:55:52.425Z,59.71
2019-04-14T05:58:18.497Z,58.22
2019-04-14T06:00:43.828Z,59.08
2019-04-14T06:03:10.347Z,59.57
2019-04-14T06:05:36.510Z,60.05
2019-04-14T06:08:02.801Z,60.49
2019-04-14T06:10:29.125Z,60.12
2019-04-14T06:12:55.446Z,60.05
2019-04-14T06:15:21.808Z,61.71
2019-04-14T06:17:48.141Z,59.65
2019-04-14T06:20:14.479Z,60.97
2019-04-14T06:22:40.795Z,60.08
2019-04-14T06:25:07.121Z,58.17
2019-04-14T06:27:33.451Z,58.24
2019-04-14T06:29:59.752Z,57.51
2019-04-14T06:32:26.058Z,58.40
2019-04-14T06:34:52.380Z,59.42
2019-04-14T06:37:18.701Z,57.48
2019-04-14T06:39:45.024Z,58.68
2019-04-14T06:42:11.335Z,60.85
2019-04-14T06:44:37.636Z,60.80
2019-04-14T06:47:03.972Z,63.04
2019-04-14T06:49:30.294Z,63.69
2019-04-14T06:51:56.618Z,64.50
2019-04-14T06:54:22.937Z,61.65
2019-04-14T06:56:49.252Z,59.81
2019-04-14T06:59:15.648Z,60.79
2019-04-14T07:01:41.966Z,61.50
2019-04-14T07:04:08.297Z,60.58
2019-04-14T07:06:34.622Z,61.65
2019-04-14T07:09:00.942Z,62.63
2019-04-14T07:11:27.332Z,63.11
2019-04-14T07:13:53.655Z,63.44
2019-04-14T07:16:19.979Z,62.01
2019-04-14T07:18:46.314Z,61.26
2019-04-14T07:21:12.644Z,61.33
2019-04-14T07:23:38.947Z,62.39
2019-04-14T07:26:05.282Z,63.60
2019-04-14T07:28:31.613Z,63.30
2019-04-14T07:30:57.937Z,61.87
2019-04-14T07:33:24.250Z,62.82
2019-04-14T07:35:50.583Z,63.56
2019-04-14T07:38:16.889Z,63.24
2019-04-14T07:40:43.211Z,63.49
2019-04-14T07:43:09.536Z,63.20
2019-04-14T07:45:35.863Z,62.23
2019-04-14T07:48:02.181Z,62.72
2019-04-14T07:50:28.506Z,63.99
2019-04-14T07:52:54.832Z,63.97
2019-04-14T07:55:21.165Z,63.86
2019-04-14T07:57:47.495Z,62.05
2019-04-14T08:00:13.843Z,60.82
2019-04-14T08:02:40.188Z,59.59
2019-04-14T08:05:06.487Z,58.63
2019-04-14T08:07:32.812Z,59.55
2019-04-14T08:09:59.130Z,60.63
2019-04-14T08:12:25.487Z,60.77
2019-04-14T08:14:51.817Z,60.24
2019-04-14T08:17:18.144Z,59.71
2019-04-14T08:19:44.467Z,60.84
2019-04-14T08:22:10.796Z,60.25
2019-04-14T08:24:37.129Z,59.98
2019-04-14T08:27:03.438Z,59.28
2019-04-14T08:29:29.762Z,59.57
2019-04-14T08:31:56.085Z,59.17
2019-04-14T08:34:22.415Z,57.62
2019-04-14T08:36:48.733Z,56.88
2019-04-14T08:39:15.031Z,58.63
2019-04-14T08:41:41.399Z,57.83
2019-04-14T08:44:07.744Z,58.76
2019-04-14T08:46:34.069Z,59.59
2019-04-14T08:49:00.736Z,60.02
2019-04-14T08:51:27.074Z,58.13
2019-04-14T08:53:53.400Z,56.50
2019-04-14T08:56:19.713Z,55.63
2019-04-14T08:58:46.020Z,56.25
2019-04-14T09:01:12.363Z,56.81
2019-04-14T09:03:38.709Z,59.14
2019-04-14T09:06:05.031Z,60.05
2019-04-14T09:08:31.339Z,59.12
2019-04-14T09:10:57.664Z,59.35
2019-04-14T09:13:23.981Z,60.11
2019-04-14T09:15:50.285Z,58.56
2019-04-14T09:18:16.647Z,58.37
2019-04-14T09:20:52.129Z,58.81
2019-04-14T09:23:09.224Z,59.28
2019-04-14T09:25:35.553Z,58.03
2019-04-14T09:28:01.881Z,56.98
2019-04-14T09:30:28.215Z,54.98
2019-04-14T09:32:54.539Z,56.77
2019-04-14T09:35:20.862Z,56.57
2019-04-14T09:37:47.194Z,53.46
2019-04-14T09:40:13.528Z,54.85
2019-04-14T09:42:39.836Z,55.99
2019-04-14T09:45:06.194Z,56.11
2019-04-14T09:47:32.529Z,56.60
2019-04-14T09:49:58.872Z,57.28
2019-04-14T09:52:25.194Z,56.04
2019-04-14T09:54:51.499Z,56.12
2019-04-14T09:57:17.853Z,54.15
2019-04-14T09:59:44.177Z,51.46
2019-04-14T10:02:10.490Z,49.17
2019-04-14T10:04:36.821Z,48.67
2019-04-14T10:07:03.143Z,46.42
2019-04-14T10:09:29.469Z,49.21
2019-04-14T10:11:56.513Z,50.73
2019-04-14T10:14:22.270Z,52.47
2019-04-14T10:16:48.563Z,55.15
2019-04-14T10:19:14.877Z,55.48
2019-04-14T10:21:41.191Z,52.97
2019-04-14T10:24:07.535Z,52.56
2019-04-14T10:26:33.903Z,54.59
2019-04-14T10:29:00.223Z,55.26
2019-04-14T10:31:26.546Z,54.71
2019-04-14T10:33:52.866Z,53.70
2019-04-14T10:36:19.296Z,49.60
2019-04-14T10:38:45.753Z,49.13
2019-04-14T10:41:12.653Z,47.79
2019-04-14T10:43:39.138Z,47.52
2019-04-14T10:46:05.474Z,48.86
2019-04-14T10:48:31.866Z,51.62
2019-04-14T10:50:58.622Z,53.07
2019-04-14T10:53:25.132Z,53.54
2019-04-14T10:55:51.744Z,55.36
2019-04-14T10:58:18.256Z,53.63
2019-04-14T11:00:44.692Z,51.43
2019-04-14T11:03:11.548Z,52.24
2019-04-14T11:05:38.199Z,50.83
2019-04-14T11:08:04.760Z,50.39
2019-04-14T11:10:31.460Z,49.45
2019-04-14T11:12:58.661Z,49.85
2019-04-14T11:15:25.029Z,50.63
2019-04-14T11:17:51.471Z,49.17
2019-04-14T11:20:18.103Z,48.73
2019-04-14T11:22:44.609Z,49.46
2019-04-14T11:25:11.205Z,50.97
2019-04-14T11:27:37.643Z,48.71
2019-04-14T11:30:03.975Z,50.10
2019-04-14T11:32:30.590Z,51.72
2019-04-14T11:34:57.159Z,50.88
2019-04-14T11:37:23.655Z,49.28
2019-04-14T11:39:50.399Z,50.26
2019-04-14T11:42:16.881Z,49.38
2019-04-14T11:44:43.841Z,48.50
2019-04-14T11:47:10.228Z,49.68
2019-04-14T11:49:36.607Z,50.28
2019-04-14T11:52:04.630Z,49.76
2019-04-14T11:54:30.931Z,50.15
2019-04-14T11:56:57.257Z,51.08
2019-04-14T11:59:23.611Z,52.07
2019-04-14T12:01:49.957Z,51.33
2019-04-14T12:04:16.264Z,52.26
2019-04-14T12:06:42.568Z,51.42
2019-04-14T12:09:08.962Z,50.06
2019-04-14T12:11:35.291Z,50.28
2019-04-14T12:14:01.642Z,49.36
2019-04-14T12:16:27.968Z,47.10
2019-04-14T12:18:54.287Z,48.17
2019-04-14T12:21:20.602Z,48.00
2019-04-14T12:23:46.922Z,47.50
2019-04-14T12:26:13.248Z,47.82
2019-04-14T12:28:40.468Z,47.65
2019-04-14T12:31:06.529Z,49.22
2019-04-14T12:33:32.229Z,48.55
2019-04-14T12:35:58.586Z,48.29
2019-04-14T12:38:24.911Z,48.94
2019-04-14T12:40:52.342Z,47.68
2019-04-14T12:43:17.545Z,46.77
2019-04-14T12:45:43.865Z,47.73
2019-04-14T12:48:10.192Z,49.72
2019-04-14T12:50:36.496Z,51.46
2019-04-14T12:53:02.825Z,52.21
2019-04-14T12:55:29.116Z,52.67
2019-04-14T12:57:55.436Z,54.53
2019-04-14T13:00:21.767Z,53.64
2019-04-14T13:02:48.095Z,53.28
2019-04-14T13:05:14.403Z,53.17
2019-04-14T13:07:40.731Z,52.40
2019-04-14T13:10:07.060Z,52.26
2019-04-14T13:12:33.365Z,52.55
2019-04-14T13:15:02.673Z,53.00
2019-04-14T13:17:26.008Z,51.99
2019-04-14T13:19:52.341Z,51.45
2019-04-14T13:22:18.667Z,51.07
2019-04-14T13:24:44.985Z,52.73
2019-04-14T13:27:11.351Z,53.96
2019-04-14T13:29:37.682Z,56.11
2019-04-14T13:32:03.999Z,57.02
2019-04-14T13:34:30.336Z,58.08
2019-04-14T13:36:56.661Z,60.04
2019-04-14T13:39:22.991Z,59.55
2019-04-14T13:41:49.297Z,57.73
2019-04-14T13:44:15.673Z,58.58
2019-04-14T13:46:42.005Z,58.52
2019-04-14T13:49:08.326Z,58.35
2019-04-14T13:51:34.634Z,58.49
2019-04-14T13:54:00.961Z,59.17
2019-04-14T13:56:27.264Z,59.82
2019-04-14T13:58:53.616Z,60.80
2019-04-14T14:01:19.915Z,60.18
2019-04-14T14:03:46.243Z,60.78
2019-04-14T14:06:12.567Z,60.52
2019-04-14T14:08:38.937Z,59.98
2019-04-14T14:11:05.205Z,59.12
2019-04-14T14:13:31.514Z,58.71
2019-04-14T14:15:57.829Z,59.21
2019-04-14T14:18:24.162Z,59.41
2019-04-14T14:20:50.498Z,59.35
2019-04-14T14:23:16.816Z,58.42
2019-04-14T14:25:43.166Z,60.25
2019-04-14T14:28:09.475Z,59.07
2019-04-14T14:30:35.809Z,60.08
2019-04-14T14:33:02.135Z,61.36
2019-04-14T14:35:28.474Z,61.59
2019-04-14T14:37:54.810Z,61.45
2019-04-14T14:40:21.152Z,61.16
2019-04-14T14:42:47.484Z,61.17
2019-04-14T14:45:13.796Z,60.73
2019-04-14T14:47:40.143Z,61.23
2019-04-14T14:50:06.474Z,59.61
2019-04-14T14:52:32.820Z,60.25
2019-04-14T14:54:59.130Z,60.34
2019-04-14T14:57:25.446Z,60.55
2019-04-14T14:59:51.795Z,61.45
2019-04-14T15:02:18.096Z,61.71
2019-04-14T15:04:44.405Z,61.48
2019-04-14T15:07:10.718Z,61.42
2019-04-14T15:09:37.046Z,62.27
2019-04-14T15:12:03.376Z,62.92
2019-04-14T15:14:29.735Z,62.88
2019-04-14T15:16:56.039Z,62.13
2019-04-14T15:19:22.384Z,61.59
2019-04-14T15:21:48.674Z,61.59
2019-04-14T15:24:14.984Z,61.96
2019-04-14T15:26:41.299Z,63.28
2019-04-14T15:29:07.633Z,63.63
2019-04-14T15:31:33.955Z,64.34
2019-04-14T15:34:00.276Z,65.40
2019-04-14T15:36:26.641Z,65.51
2019-04-14T15:38:52.963Z,65.52
2019-04-14T15:41:19.275Z,66.48
2019-04-14T15:43:45.579Z,66.40
2019-04-14T15:46:11.911Z,66.33
2019-04-14T15:48:38.237Z,66.69
2019-04-14T15:51:04.558Z,67.35
2019-04-14T15:53:37.762Z,67.31
2019-04-14T15:55:57.234Z,67.16
2019-04-14T15:58:23.561Z,66.44
2019-04-14T16:00:49.882Z,66.80
2019-04-14T16:03:16.188Z,67.35
2019-04-14T16:05:43.709Z,67.56
2019-04-14T16:08:08.838Z,67.16
2019-04-14T16:10:35.165Z,67.37
2019-04-14T16:13:02.698Z,67.67
2019-04-14T16:15:29.013Z,68.40
2019-04-14T16:17:55.346Z,68.46
2019-04-14T16:20:21.705Z,68.99
2019-04-14T16:22:48.025Z,69.57
2019-04-14T16:25:14.346Z,69.41
2019-04-14T16:27:40.659Z,69.96
2019-04-14T16:30:06.985Z,70.27
2019-04-14T16:32:33.307Z,70.42
2019-04-14T16:34:59.608Z,70.96
2019-04-14T16:37:25.973Z,70.44
2019-04-14T16:39:52.296Z,70.78
2019-04-14T16:42:18.748Z,71.03
2019-04-14T16:44:45.078Z,71.42
2019-04-14T16:47:11.398Z,71.75
2019-04-14T16:49:37.803Z,71.71
2019-04-14T16:52:07.206Z,71.88
2019-04-14T16:54:33.539Z,72.19
2019-04-14T16:56:59.889Z,72.35
2019-04-14T16:59:26.230Z,72.62
2019-04-14T17:01:52.540Z,72.82
2019-04-14T17:04:18.929Z,72.86
2019-04-14T17:06:45.233Z,73.30
2019-04-14T17:09:11.541Z,73.47
2019-04-14T17:11:37.847Z,73.91
2019-04-14T17:14:04.247Z,73.50
2019-04-14T17:16:30.606Z,73.25
2019-04-14T17:18:56.938Z,73.29
2019-04-14T17:21:23.472Z,73.82
2019-04-14T17:23:49.818Z,73.82
2019-04-14T17:26:16.236Z,73.13
2019-04-14T17:28:42.558Z,73.37
2019-04-14T17:31:09.091Z,72.58
2019-04-14T17:33:35.423Z,72.72
2019-04-14T17:36:01.732Z,72.39
2019-04-14T17:38:28.096Z,72.04
2019-04-14T17:40:54.410Z,72.30
2019-04-14T17:43:20.753Z,72.38
2019-04-14T17:45:47.104Z,72.54
2019-04-14T17:48:13.428Z,72.66
2019-04-14T17:50:40.824Z,72.73
2019-04-14T17:53:06.075Z,72.36
2019-04-14T17:55:32.406Z,72.63
2019-04-14T17:57:58.716Z,72.74
2019-04-14T18:00:25.063Z,72.62
2019-04-14T18:02:51.380Z,72.50
2019-04-14T18:05:17.685Z,72.80
2019-04-14T18:07:44.003Z,73.11
2019-04-14T18:10:10.318Z,73.53
2019-04-14T18:12:36.650Z,73.48
2019-04-14T18:15:02.986Z,73.68
2019-04-14T18:17:29.307Z,73.54
2019-04-14T18:19:55.618Z,73.89
2019-04-14T18:22:21.947Z,74.44
2019-04-14T18:24:48.253Z,74.42
2019-04-14T18:27:14.627Z,74.17
2019-04-14T18:29:40.965Z,73.75
2019-04-14T18:32:07.284Z,73.40
2019-04-14T18:37:14.078Z,73.86
2019-04-14T18:39:40.485Z,73.82
2019-04-14T18:42:06.796Z,74.10
2019-04-14T18:44:37.147Z,74.16
2019-04-14T18:47:15.020Z,74.42
2019-04-14T18:49:43.710Z,74.69
2019-04-14T18:52:17.408Z,74.72
2019-04-14T18:54:54.407Z,74.80
2019-04-14T18:57:19.054Z,74.85
2019-04-14T18:59:45.483Z,74.83
2019-04-14T19:02:11.794Z,75.27
2019-04-14T19:04:38.335Z,75.56
2019-04-14T19:09:39.898Z,74.73
2019-04-14T19:12:06.232Z,74.86
2019-04-14T19:14:32.536Z,75.07
2019-04-14T19:16:58.874Z,75.01
2019-04-14T19:19:25.200Z,75.04
2019-04-14T19:21:51.543Z,75.29
2019-04-14T19:24:17.874Z,75.79
2019-04-14T19:26:44.198Z,76.15
2019-04-14T19:29:10.509Z,76.30
2019-04-14T19:31:36.839Z,76.52
2019-04-14T19:34:03.195Z,76.51
2019-04-14T19:36:29.531Z,76.93
2019-04-14T19:38:55.849Z,77.00
2019-04-14T19:41:22.174Z,76.94
2019-04-14T19:43:48.481Z,76.71
2019-04-14T19:46:14.806Z,76.68
2019-04-14T19:48:41.135Z,76.62
2019-04-14T19:51:07.464Z,76.53
2019-04-14T19:53:33.786Z,76.67
2019-04-14T19:56:00.134Z,76.67
2019-04-14T19:58:26.455Z,76.71
2019-04-14T20:00:52.782Z,76.39
2019-04-14T20:03:19.109Z,76.55
2019-04-14T20:05:45.438Z,76.50
2019-04-14T20:08:11.744Z,76.52
2019-04-14T20:10:38.070Z,76.96
2019-04-14T20:13:04.412Z,77.09
2019-04-14T20:15:30.724Z,76.89
2019-04-14T20:17:57.042Z,76.95
2019-04-14T20:20:23.355Z,77.08
2019-04-14T20:22:49.648Z,77.09
2019-04-14T20:25:15.975Z,76.98
2019-04-14T20:27:42.275Z,77.19
2019-04-14T20:30:08.588Z,76.96
2019-04-14T20:32:34.910Z,77.04
2019-04-14T20:35:01.215Z,77.21
2019-04-14T20:37:27.536Z,77.53
2019-04-14T20:39:53.846Z,77.37
2019-04-14T20:42:20.153Z,77.58
2019-04-14T20:44:46.468Z,77.89
2019-04-14T20:47:12.794Z,77.80
2019-04-14T20:49:39.120Z,78.11
2019-04-14T20:52:05.446Z,78.62
2019-04-14T20:54:34.268Z,78.46
2019-04-14T20:57:00.618Z,78.74
2019-04-14T20:59:26.957Z,79.08
2019-04-14T21:01:53.276Z,79.17
2019-04-14T21:04:19.599Z,78.70
2019-04-14T21:06:45.895Z,78.68
2019-04-14T21:09:12.224Z,79.01
2019-04-14T21:11:38.540Z,79.41
2019-04-14T21:14:04.865Z,79.24
2019-04-14T21:16:31.167Z,79.08
2019-04-14T21:18:57.500Z,79.23
2019-04-14T21:21:23.803Z,79.19
2019-04-14T21:23:50.130Z,78.72
2019-04-14T21:26:16.457Z,79.21
2019-04-14T21:28:42.953Z,79.45
2019-04-14T21:31:09.272Z,80.12
2019-04-14T21:33:35.594Z,80.35
2019-04-14T21:36:01.910Z,80.58
2019-04-14T21:38:28.229Z,80.54
2019-04-14T21:40:54.588Z,80.96
2019-04-14T21:43:20.911Z,81.48
2019-04-14T21:45:47.292Z,81.97
2019-04-14T21:48:13.553Z,81.99
2019-04-14T21:50:39.876Z,82.03
2019-04-14T21:53:06.205Z,82.58
2019-04-14T21:55:32.512Z,82.62
2019-04-14T21:57:58.855Z,82.91
2019-04-14T22:00:25.164Z,83.32
2019-04-14T22:02:51.497Z,83.25
2019-04-14T22:05:17.803Z,83.15
2019-04-14T22:07:44.121Z,83.10
2019-04-14T22:10:10.462Z,82.38
2019-04-14T22:12:36.833Z,82.73
2019-04-14T22:15:03.138Z,82.71
2019-04-14T22:17:29.456Z,83.23
2019-04-14T22:19:55.765Z,83.26
2019-04-14T22:22:22.093Z,83.92
2019-04-14T22:24:50.952Z,85.11
2019-04-14T22:27:14.855Z,85.94
2019-04-14T22:29:41.180Z,86.11
2019-04-14T22:32:07.474Z,86.18
2019-04-14T22:34:33.813Z,87.02
2019-04-14T22:37:00.200Z,87.19
2019-04-14T22:39:26.507Z,86.30
2019-04-14T22:41:52.902Z,86.22
2019-04-14T22:44:19.227Z,85.41
2019-04-14T22:46:45.547Z,85.28
2019-04-14T22:49:11.898Z,85.22
2019-04-14T22:51:38.210Z,85.20
2019-04-14T22:54:04.595Z,85.22
2019-04-14T22:56:39.263Z,84.34
2019-04-14T22:58:57.149Z,83.95
2019-04-14T23:01:23.470Z,83.86
2019-04-14T23:03:49.796Z,83.48
2019-04-14T23:06:16.125Z,83.24
2019-04-14T23:08:42.446Z,82.94
2019-04-14T23:11:08.777Z,82.47
2019-04-14T23:13:35.100Z,82.53
2019-04-14T23:16:01.398Z,82.52
2019-04-14T23:18:27.708Z,82.22
2019-04-14T23:20:54.041Z,82.69
2019-04-14T23:23:20.366Z,82.64
2019-04-14T23:25:46.679Z,82.51
2019-04-14T23:28:13.002Z,82.25
2019-04-14T23:30:39.308Z,82.57
2019-04-14T23:33:05.643Z,82.93
2019-04-14T23:35:31.959Z,87.06
2019-04-14T23:37:58.261Z,88.68
2019-04-14T23:40:24.606Z,90.89
2019-04-14T23:42:50.903Z,91.58
2019-04-14T23:45:17.232Z,91.46
2019-04-14T23:47:43.549Z,92.15
2019-04-14T23:50:09.873Z,92.02
2019-04-14T23:52:36.198Z,91.26
2019-04-14T23:55:02.515Z,91.40
2019-04-14T23:57:28.847Z,91.44
2019-04-14T23:59:55.149Z,91.78
